首页
METAR-TAF:

METAR-TAF

机场 :

孟菲斯国际机场

孟菲斯, 田纳西州, 美国

纬度: 35-03-40N, 经度: 089-59-06W, 海拔: 101米

当前天气观测

该预报发布于34分钟前的06:54 UTC
风速7节,风向
温度 12°C
湿度 88%
气压 1017 hPa
能見度: 16.1公里
少量云层高于8500英尺

METAR: KMEM 050654Z 01007KT 10SM FEW085 12/10 A3002 RMK AO2 SLP165 T01220100

时间: 02:28 (07:28 UTC)

预报

该预报发布于2小时和8分钟前的05:20 UTC
预报有效从05日的 06点(UTC)到 06日的 12点(UTC)
风速6节,风向
能見度: 10公里
散云层高于8000英尺
多云层高于18000英尺
从 05日的 1600点(UTC)
风速6节,风向北转西北
能見度: 10公里
散云层高于4000英尺
散云层高于25000英尺
从 06日的 0100点(UTC)
风速5节,风向北转东北
能見度: 10公里
少量云层高于5000英尺
散云层高于25000英尺
从 06日的 0700点(UTC)
风速3节,风向
能見度: 10公里
多云层高于25000英尺

TAF: KMEM 050520Z 0506/0612 01006KT P6SM SCT080 BKN180 FM051600 34006KT P6SM SCT040 SCT250 FM060100 02005KT P6SM FEW050 SCT250 FM060700 08003KT P6SM BKN250

超过4000个机场的气象观测和天气预报(METAR&TAF报告)。

可查询的气象台以黄色和红色小点在地图上表示。

将鼠标移到小点上方,可查看气象台名称。

然后点击查看天气观测和预报。

如需切换地图:点击带黑十字的绿色按钮放大地图;点击带横线的绿色按钮缩小地图;或者点击绿色箭头查看邻近地区的地图。


METAR-TAF: